Time;durP1;ratioP1;P1;durP2;ratioP2;P2;SDS_P1;SDS_P2;PMS_P1;PMS_P2;Temp;Humidity;BMP_temperature;BMP_pressure;BME280_temperature;BME280_humidity;BME280_pressure;Samples;Min_cycle;Max_cycle;Signal;HPM_P1;HPM_P2
2022/04/20 00:01:24;;;;;;;5.65;3.05;;;7.60;66.50;;;;;;5009485;28;20432;-68
2022/04/20 00:03:50;;;;;;;6.30;3.20;;;7.50;66.60;;;;;;5013050;28;20033;-68
2022/04/20 00:06:15;;;;;;;5.47;2.90;;;7.50;66.50;;;;;;5033181;28;20041;-68
2022/04/20 00:08:41;;;;;;;6.03;3.10;;;7.50;66.30;;;;;;5041161;28;20041;-68
2022/04/20 00:11:10;;;;;;;6.13;3.10;;;7.50;66.20;;;;;;5038460;28;20129;-68
2022/04/20 00:13:36;;;;;;;7.45;3.17;;;7.50;66.20;;;;;;5050216;28;20040;-68
2022/04/20 00:16:02;;;;;;;6.03;3.10;;;7.50;66.00;;;;;;5016438;28;20047;-68
2022/04/20 00:18:28;;;;;;;7.72;3.30;;;7.50;65.80;;;;;;5040676;28;20049;-68
2022/04/20 00:20:54;;;;;;;7.50;3.47;;;7.50;65.70;;;;;;5015052;28;20062;-68
2022/04/20 00:23:19;;;;;;;5.63;2.80;;;7.50;65.40;;;;;;5057210;28;20044;-67
2022/04/20 00:25:45;;;;;;;7.60;3.73;;;7.50;65.20;;;;;;5043132;28;20135;-67
2022/04/20 00:28:11;;;;;;;6.30;2.97;;;7.50;65.10;;;;;;5019590;28;20118;-67
2022/04/20 00:30:37;;;;;;;5.73;2.70;;;7.40;65.00;;;;;;5026718;28;20037;-67
2022/04/20 00:33:02;;;;;;;7.73;3.07;;;7.30;65.10;;;;;;5045552;28;20481;-67
2022/04/20 00:35:28;;;;;;;7.53;3.30;;;7.30;65.10;;;;;;5047414;28;20143;-67
2022/04/20 00:37:54;;;;;;;5.43;2.90;;;7.30;64.90;;;;;;5030952;28;20516;-67
2022/04/20 00:40:20;;;;;;;6.63;3.15;;;7.20;65.10;;;;;;5026927;28;20041;-68
2022/04/20 00:42:47;;;;;;;8.47;3.53;;;7.10;65.30;;;;;;5033536;28;20063;-67
2022/04/20 00:45:13;;;;;;;5.63;3.88;;;7.10;65.30;;;;;;5029831;28;20044;-67
2022/04/20 00:47:42;;;;;;;5.82;3.30;;;7.00;65.30;;;;;;5017241;28;20049;-67
2022/04/20 00:50:09;;;;;;;7.18;3.30;;;7.00;65.30;;;;;;5040444;28;20306;-68
2022/04/20 00:52:35;;;;;;;8.80;3.88;;;6.90;65.40;;;;;;5042923;28;20413;-67
2022/04/20 00:55:02;;;;;;;6.77;3.10;;;6.90;65.40;;;;;;5029912;28;20052;-67
2022/04/20 00:57:28;;;;;;;4.95;2.97;;;6.90;65.60;;;;;;5033661;28;20102;-67
2022/04/20 00:59:56;;;;;;;7.03;3.17;;;6.80;65.60;;;;;;5047291;28;20044;-67
2022/04/20 01:02:22;;;;;;;5.47;3.20;;;6.80;65.70;;;;;;5043904;28;20046;-67
2022/04/20 01:04:49;;;;;;;6.18;3.25;;;6.80;65.70;;;;;;5035892;28;20047;-67
2022/04/20 01:07:16;;;;;;;6.82;3.58;;;6.70;65.70;;;;;;5048079;28;20048;-67
2022/04/20 01:09:43;;;;;;;5.07;3.28;;;6.70;65.90;;;;;;5046306;28;20038;-67
2022/04/20 01:12:10;;;;;;;4.90;2.92;;;6.60;66.00;;;;;;5039594;28;20037;-67
2022/04/20 01:14:36;;;;;;;7.30;3.35;;;6.60;66.00;;;;;;5042092;28;20101;-67
2022/04/20 01:17:03;;;;;;;6.05;3.40;;;6.50;66.00;;;;;;5030920;28;20052;-67
2022/04/20 01:19:33;;;;;;;8.88;3.78;;;6.50;66.10;;;;;;5024968;28;20075;-67
2022/04/20 01:22:00;;;;;;;4.80;3.17;;;6.50;66.20;;;;;;5039461;28;20052;-67
2022/04/20 01:24:26;;;;;;;7.13;3.67;;;6.40;66.40;;;;;;5031195;28;20048;-67
2022/04/20 01:26:52;;;;;;;6.57;3.70;;;6.40;66.30;;;;;;5015017;28;20045;-67
2022/04/20 01:29:19;;;;;;;5.70;3.07;;;6.30;66.50;;;;;;5035951;28;20044;-67
2022/04/20 01:31:44;;;;;;;6.47;3.30;;;6.30;66.50;;;;;;5027046;28;20041;-67
2022/04/20 01:34:10;;;;;;;8.10;3.70;;;6.30;66.50;;;;;;5045472;28;20124;-68
2022/04/20 01:36:36;;;;;;;7.63;4.10;;;6.20;66.50;;;;;;5031966;28;20036;-67
2022/04/20 01:39:02;;;;;;;7.65;3.85;;;6.20;66.70;;;;;;5036388;28;20102;-67
2022/04/20 01:41:28;;;;;;;5.87;3.47;;;6.20;66.70;;;;;;5034936;28;20068;-67
2022/04/20 01:43:54;;;;;;;9.57;4.10;;;6.10;66.70;;;;;;5031166;28;20040;-67
2022/04/20 01:46:19;;;;;;;9.63;4.23;;;6.10;66.80;;;;;;5039843;28;20040;-67
2022/04/20 01:48:45;;;;;;;6.40;3.70;;;6.10;66.70;;;;;;5054157;28;20040;-67
2022/04/20 01:53:55;;;;;;;6.05;3.90;;;6.00;66.70;;;;;;5047309;28;20060;-68
2022/04/20 01:56:20;;;;;;;8.53;4.00;;;6.00;66.40;;;;;;5043960;28;20040;-67
2022/04/20 01:58:46;;;;;;;7.43;4.33;;;6.00;66.60;;;;;;5044636;28;20048;-67
2022/04/20 02:03:56;;;;;;;6.60;3.70;;;6.00;66.30;;;;;;5048336;28;20050;-67
2022/04/20 02:06:22;;;;;;;6.87;3.97;;;6.00;66.30;;;;;;5043739;28;20352;-67
2022/04/20 02:08:47;;;;;;;7.53;3.97;;;5.90;66.30;;;;;;5043757;28;20146;-67
2022/04/20 02:11:13;;;;;;;7.53;4.07;;;5.90;66.30;;;;;;5047304;28;20043;-67
2022/04/20 02:13:39;;;;;;;5.87;3.77;;;5.90;66.20;;;;;;5025795;28;20041;-67
2022/04/20 02:16:05;;;;;;;7.13;3.57;;;5.90;66.20;;;;;;5037582;28;20063;-67
2022/04/20 02:18:31;;;;;;;5.93;3.67;;;5.90;66.20;;;;;;5021665;28;20756;-67
2022/04/20 02:20:56;;;;;;;6.43;3.87;;;5.90;66.10;;;;;;5036077;28;20140;-67
2022/04/20 02:23:22;;;;;;;9.40;3.70;;;5.90;66.00;;;;;;5031227;28;20040;-67
2022/04/20 02:25:48;;;;;;;8.30;4.40;;;5.80;66.00;;;;;;5041622;28;20047;-67
2022/04/20 02:28:14;;;;;;;7.50;4.20;;;5.80;66.30;;;;;;5047001;28;20514;-67
2022/04/20 02:30:40;;;;;;;8.70;4.60;;;5.70;66.40;;;;;;5052112;28;20048;-67
2022/04/20 02:33:05;;;;;;;7.18;3.63;;;5.60;66.70;;;;;;5051643;28;20485;-67
2022/04/20 02:35:31;;;;;;;8.40;4.17;;;5.60;66.60;;;;;;5032802;28;20065;-67
2022/04/20 02:37:59;;;;;;;7.83;4.03;;;5.60;66.70;;;;;;5049235;28;20032;-67
2022/04/20 02:40:25;;;;;;;7.00;4.07;;;5.50;66.90;;;;;;5050285;28;20055;-67
2022/04/20 02:42:50;;;;;;;5.95;4.40;;;5.60;66.80;;;;;;5026439;28;20037;-67
2022/04/20 02:45:16;;;;;;;6.97;3.77;;;5.60;66.80;;;;;;5029009;28;20052;-67
2022/04/20 02:47:43;;;;;;;7.18;4.10;;;5.60;66.80;;;;;;5037002;28;20049;-67
2022/04/20 02:50:09;;;;;;;7.93;4.18;;;5.50;66.90;;;;;;5030575;28;20036;-67
2022/04/20 02:52:34;;;;;;;7.97;4.83;;;5.50;66.70;;;;;;5046032;28;20640;-68
2022/04/20 02:55:00;;;;;;;6.13;4.00;;;5.50;67.00;;;;;;5050390;28;20048;-67
2022/04/20 02:57:26;;;;;;;6.80;4.37;;;5.50;67.00;;;;;;5025617;28;20045;-68
2022/04/20 02:59:52;;;;;;;6.60;4.00;;;5.40;67.00;;;;;;5034487;28;20209;-67
2022/04/20 03:02:18;;;;;;;7.18;4.25;;;5.40;67.10;;;;;;5031542;28;20040;-67
2022/04/20 03:04:43;;;;;;;8.07;4.47;;;5.40;67.40;;;;;;5039126;28;20037;-67
2022/04/20 03:07:09;;;;;;;8.63;4.47;;;5.40;67.30;;;;;;5041449;28;20052;-67
2022/04/20 03:09:35;;;;;;;6.40;4.20;;;5.40;67.40;;;;;;5047809;28;20040;-67
2022/04/20 03:12:01;;;;;;;7.17;4.10;;;5.40;67.40;;;;;;5014830;28;20033;-67
2022/04/20 03:14:26;;;;;;;8.03;4.40;;;5.30;67.50;;;;;;5011921;28;20040;-67
2022/04/20 03:16:52;;;;;;;6.87;4.13;;;5.30;67.60;;;;;;5019118;28;20210;-67
2022/04/20 03:19:18;;;;;;;7.47;4.57;;;5.30;67.50;;;;;;5034564;28;20072;-67
2022/04/20 03:21:44;;;;;;;7.53;4.67;;;5.30;67.60;;;;;;5035203;28;20075;-67
2022/04/20 03:24:09;;;;;;;6.97;4.67;;;5.20;67.70;;;;;;5035104;28;20487;-67
2022/04/20 03:26:35;;;;;;;7.60;3.87;;;5.20;67.70;;;;;;5023740;28;20082;-67
2022/04/20 03:29:00;;;;;;;8.47;5.27;;;5.20;67.80;;;;;;5045489;28;20505;-67
2022/04/20 03:31:26;;;;;;;7.70;3.97;;;5.20;68.00;;;;;;5039618;28;20135;-67
2022/04/20 03:33:52;;;;;;;7.30;4.43;;;5.10;68.10;;;;;;5046541;28;20074;-67
2022/04/20 03:36:18;;;;;;;10.10;4.57;;;5.10;68.30;;;;;;5046709;28;20040;-67
2022/04/20 03:38:44;;;;;;;6.63;4.20;;;5.10;68.50;;;;;;5036526;28;20048;-67
2022/04/20 03:41:10;;;;;;;11.00;4.10;;;5.10;68.30;;;;;;5026073;28;20036;-67
2022/04/20 03:43:35;;;;;;;8.10;4.50;;;5.00;68.50;;;;;;5043488;28;20407;-67
2022/04/20 03:46:01;;;;;;;5.73;4.37;;;4.90;68.60;;;;;;5029457;28;20804;-67
2022/04/20 03:48:27;;;;;;;9.40;4.83;;;4.90;68.80;;;;;;5041284;28;20424;-67
2022/04/20 03:50:53;;;;;;;9.23;4.67;;;4.90;68.90;;;;;;5027608;28;20128;-67
2022/04/20 03:53:18;;;;;;;7.90;4.50;;;4.80;69.00;;;;;;5034033;28;20029;-67
2022/04/20 03:55:44;;;;;;;7.93;4.73;;;4.80;69.10;;;;;;5046738;28;20129;-67
2022/04/20 03:58:10;;;;;;;8.13;4.63;;;4.90;69.50;;;;;;5034237;28;20132;-67
2022/04/20 04:00:36;;;;;;;8.03;4.63;;;4.90;69.40;;;;;;5017424;28;20083;-67
2022/04/20 04:03:01;;;;;;;9.00;5.07;;;4.90;69.50;;;;;;5050048;28;20443;-67
2022/04/20 04:05:27;;;;;;;9.07;5.47;;;4.90;69.50;;;;;;5033747;28;20052;-67
2022/04/20 04:07:53;;;;;;;10.70;5.23;;;4.90;69.70;;;;;;5029921;28;20640;-67
2022/04/20 04:10:19;;;;;;;7.20;4.77;;;4.90;69.70;;;;;;5040913;28;20384;-67
2022/04/20 04:12:44;;;;;;;7.67;4.93;;;4.80;69.90;;;;;;5048619;28;20043;-67
2022/04/20 04:15:11;;;;;;;9.57;4.97;;;4.80;70.00;;;;;;5045476;28;20044;-67
2022/04/20 04:17:37;;;;;;;9.93;4.82;;;4.80;70.30;;;;;;5035765;28;20065;-67
2022/04/20 04:20:04;;;;;;;9.95;4.65;;;4.80;70.20;;;;;;5048387;28;20052;-67
2022/04/20 04:22:30;;;;;;;6.68;4.50;;;4.80;70.20;;;;;;5048817;28;20098;-67
2022/04/20 04:24:57;;;;;;;8.18;4.80;;;4.80;70.40;;;;;;5039364;28;20118;-67
2022/04/20 04:27:23;;;;;;;7.80;5.20;;;4.80;70.40;;;;;;5030441;28;20116;-67
2022/04/20 04:29:48;;;;;;;9.13;4.85;;;4.80;70.40;;;;;;5039575;28;20043;-67
2022/04/20 04:32:14;;;;;;;9.13;4.80;;;4.80;70.60;;;;;;5039777;28;20044;-67
2022/04/20 04:34:40;;;;;;;10.17;5.57;;;4.80;70.40;;;;;;5032410;28;20427;-67
2022/04/20 04:37:09;;;;;;;9.50;5.85;;;4.80;70.50;;;;;;5013404;28;20249;-67
2022/04/20 04:39:34;;;;;;;8.68;5.50;;;4.80;70.60;;;;;;5028610;28;20045;-67
2022/04/20 04:42:03;;;;;;;9.50;5.40;;;4.80;70.60;;;;;;5010958;28;20492;-67
2022/04/20 04:44:29;;;;;;;7.82;4.93;;;4.80;70.70;;;;;;5017881;28;20519;-67
2022/04/20 04:49:39;;;;;;;9.38;5.43;;;4.80;71.00;;;;;;5041224;28;20059;-67
2022/04/20 04:52:11;;;;;;;8.87;6.00;;;4.80;70.80;;;;;;5029840;28;20505;-67
2022/04/20 04:54:39;;;;;;;10.40;6.22;;;4.80;70.80;;;;;;5029828;28;20049;-67
2022/04/20 04:57:07;;;;;;;9.75;6.10;;;4.90;70.90;;;;;;5031707;28;20044;-67
2022/04/20 04:59:39;;;;;;;7.88;5.18;;;4.90;71.10;;;;;;5034435;28;20506;-67
2022/04/20 05:02:06;;;;;;;10.15;5.90;;;4.80;71.10;;;;;;5047472;28;20051;-67
2022/04/20 05:04:33;;;;;;;8.55;5.75;;;4.90;71.10;;;;;;5048411;28;20480;-67
2022/04/20 05:06:59;;;;;;;8.82;5.30;;;5.00;71.20;;;;;;5046200;28;20048;-67
2022/04/20 05:09:25;;;;;;;9.93;5.45;;;5.00;70.80;;;;;;5034056;28;20656;-67
2022/04/20 05:11:51;;;;;;;7.50;4.87;;;5.10;70.80;;;;;;5029334;28;20036;-67
2022/04/20 05:14:17;;;;;;;8.97;5.20;;;5.10;70.70;;;;;;5023918;28;20032;-67
2022/04/20 05:16:43;;;;;;;9.45;5.22;;;5.20;70.60;;;;;;5030156;28;20045;-67
2022/04/20 05:19:09;;;;;;;8.32;4.82;;;5.20;70.70;;;;;;5035331;28;20048;-67
2022/04/20 05:21:35;;;;;;;8.15;5.30;;;5.30;70.50;;;;;;5038367;28;20082;-67
2022/04/20 05:24:01;;;;;;;6.63;4.93;;;5.30;70.10;;;;;;5037690;28;20036;-67
2022/04/20 05:26:27;;;;;;;7.72;4.65;;;5.30;70.10;;;;;;5011656;28;20672;-67
2022/04/20 05:28:53;;;;;;;9.10;4.90;;;5.40;69.90;;;;;;5041198;28;20041;-67
2022/04/20 05:31:20;;;;;;;7.72;5.10;;;5.50;69.80;;;;;;5030922;28;20063;-67
2022/04/20 05:33:46;;;;;;;8.98;5.10;;;5.60;69.50;;;;;;5031041;28;20040;-67
2022/04/20 05:36:12;;;;;;;9.13;5.50;;;5.70;69.30;;;;;;5042070;28;20091;-67
2022/04/20 05:41:41;;;;;;;7.07;4.60;;;5.70;69.30;;;;;;5047302;28;20040;-67
2022/04/20 05:44:12;;;;;;;9.88;5.13;;;5.80;69.10;;;;;;5029927;28;20045;-67
2022/04/20 05:46:39;;;;;;;8.13;5.70;;;5.90;69.00;;;;;;5037548;28;20040;-67
2022/04/20 05:49:05;;;;;;;8.85;5.35;;;5.90;68.90;;;;;;5027213;28;20562;-67
2022/04/20 05:51:31;;;;;;;8.13;4.85;;;5.90;69.00;;;;;;5047767;28;20044;-67
2022/04/20 05:53:57;;;;;;;9.32;5.32;;;6.00;68.90;;;;;;5042110;28;20044;-67
2022/04/20 05:56:23;;;;;;;9.63;5.17;;;6.10;68.80;;;;;;5041787;28;20063;-67
2022/04/20 05:58:52;;;;;;;7.13;4.77;;;6.10;68.60;;;;;;5046479;28;20492;-67
2022/04/20 06:01:18;;;;;;;6.18;4.78;;;6.20;68.60;;;;;;5048710;28;20048;-67
2022/04/20 06:03:45;;;;;;;7.68;4.90;;;6.30;68.40;;;;;;5048423;28;20074;-67
2022/04/20 06:06:11;;;;;;;10.02;4.63;;;6.30;68.20;;;;;;5042751;28;20127;-67
2022/04/20 06:08:37;;;;;;;7.67;4.93;;;6.40;67.90;;;;;;5026506;28;20048;-67
2022/04/20 06:11:03;;;;;;;8.13;4.63;;;6.40;67.80;;;;;;5030098;28;20279;-67
2022/04/20 06:13:29;;;;;;;9.20;5.82;;;6.50;67.80;;;;;;5020480;28;20041;-67
2022/04/20 06:15:55;;;;;;;9.27;5.80;;;6.60;67.60;;;;;;5048338;28;20044;-67
2022/04/20 06:18:21;;;;;;;6.57;4.57;;;6.70;67.40;;;;;;5029998;28;20295;-67
2022/04/20 06:20:47;;;;;;;10.70;5.00;;;6.80;67.20;;;;;;5048060;28;20522;-67
2022/04/20 06:23:13;;;;;;;7.47;5.13;;;6.80;67.20;;;;;;5041143;28;20076;-67
2022/04/20 06:25:39;;;;;;;8.50;5.35;;;7.00;66.80;;;;;;5029940;28;20476;-67
2022/04/20 06:28:06;;;;;;;7.90;5.00;;;7.10;66.60;;;;;;5008204;28;20045;-67
2022/04/20 06:30:32;;;;;;;8.50;4.75;;;7.20;66.90;;;;;;5044604;28;20040;-67
2022/04/20 06:32:58;;;;;;;10.50;4.78;;;7.20;67.20;;;;;;5046328;28;20043;-67
2022/04/20 06:35:23;;;;;;;9.27;5.20;;;7.40;67.00;;;;;;5015924;28;20455;-67
2022/04/20 06:37:50;;;;;;;9.43;4.53;;;7.50;66.40;;;;;;5047063;28;20073;-67
2022/04/20 06:40:16;;;;;;;9.00;4.97;;;7.70;65.90;;;;;;5048596;28;20037;-67
2022/04/20 06:42:41;;;;;;;7.37;4.50;;;7.80;66.30;;;;;;5007304;28;20412;-68
2022/04/20 06:45:07;;;;;;;7.67;4.87;;;8.00;66.20;;;;;;5029191;28;20528;-68
2022/04/20 06:47:34;;;;;;;7.35;4.30;;;8.10;66.10;;;;;;5028940;28;20040;-68
2022/04/20 06:50:00;;;;;;;5.95;4.07;;;8.30;65.40;;;;;;5047560;28;20045;-68
2022/04/20 07:00:39;;;;;;;5.03;3.47;;;8.70;62.30;;;;;;5048030;28;20354;-68
2022/04/20 07:03:06;;;;;;;9.50;3.70;;;8.70;62.50;;;;;;5031687;28;20266;-67
2022/04/20 07:05:33;;;;;;;6.90;3.53;;;8.80;62.00;;;;;;5026291;28;20490;-68
2022/04/20 07:08:00;;;;;;;5.93;3.90;;;8.90;61.80;;;;;;5019115;28;20103;-68
2022/04/20 07:10:26;;;;;;;5.15;3.42;;;9.00;61.80;;;;;;5045613;28;20374;-68
2022/04/20 07:12:52;;;;;;;6.83;3.47;;;9.10;61.60;;;;;;5027267;28;20039;-68
2022/04/20 07:15:18;;;;;;;4.53;3.27;;;9.20;61.10;;;;;;4999012;28;20047;-68
2022/04/20 07:17:44;;;;;;;5.63;3.65;;;9.30;60.70;;;;;;5050680;28;20064;-68
2022/04/20 07:20:13;;;;;;;5.93;3.37;;;9.40;59.90;;;;;;5049798;28;20481;-68
2022/04/20 07:22:39;;;;;;;5.15;3.30;;;9.50;58.90;;;;;;5015215;28;20060;-68
2022/04/20 07:25:05;;;;;;;4.63;3.47;;;9.50;59.60;;;;;;5018497;28;20044;-68
2022/04/20 07:27:32;;;;;;;5.55;3.10;;;9.70;59.10;;;;;;5000848;28;20047;-68
2022/04/20 07:29:58;;;;;;;6.72;3.22;;;9.80;58.00;;;;;;5033414;28;20083;-68
2022/04/20 07:32:23;;;;;;;8.13;3.00;;;9.80;58.30;;;;;;5047663;28;20504;-68
2022/04/20 07:34:49;;;;;;;4.93;3.20;;;9.90;58.10;;;;;;5015586;28;20037;-68
2022/04/20 07:37:15;;;;;;;5.07;3.40;;;10.10;57.60;;;;;;5016855;28;20052;-68
2022/04/20 07:39:40;;;;;;;5.77;3.43;;;10.10;57.60;;;;;;5044716;28;20076;-68
2022/04/20 07:42:07;;;;;;;6.40;3.53;;;10.20;57.50;;;;;;5014678;28;20048;-68
2022/04/20 07:44:32;;;;;;;7.15;3.40;;;10.40;56.70;;;;;;5017140;28;20469;-68
2022/04/20 07:46:58;;;;;;;6.63;3.23;;;10.40;57.20;;;;;;5031310;28;20139;-68
2022/04/20 07:52:08;;;;;;;7.38;3.38;;;10.60;57.30;;;;;;5033845;28;20463;-68
2022/04/20 07:54:34;;;;;;;7.47;3.42;;;10.80;57.10;;;;;;5032774;28;20436;-68
2022/04/20 07:57:00;;;;;;;6.07;3.37;;;10.80;57.30;;;;;;5029091;28;20071;-68
2022/04/20 07:59:26;;;;;;;5.23;2.60;;;11.00;57.30;;;;;;5047860;28;20040;-68
2022/04/20 08:01:51;;;;;;;4.70;2.73;;;11.10;55.30;;;;;;5049357;28;20068;-68
2022/04/20 08:04:17;;;;;;;4.40;3.03;;;11.20;54.10;;;;;;5049770;28;20052;-68
2022/04/20 08:06:43;;;;;;;6.33;3.03;;;11.20;54.00;;;;;;5047864;28;20818;-68
2022/04/20 08:09:08;;;;;;;4.97;2.83;;;11.30;53.80;;;;;;5048677;28;20036;-68
2022/04/20 08:11:34;;;;;;;4.67;2.60;;;11.40;53.00;;;;;;5048408;28;20033;-68
2022/04/20 08:14:12;;;;;;;3.63;2.50;;;11.50;53.60;;;;;;5033386;28;20033;-68
2022/04/20 08:16:38;;;;;;;4.93;2.83;;;11.60;52.90;;;;;;5013142;28;20164;-68
2022/04/20 08:19:04;;;;;;;4.70;2.70;;;11.70;52.00;;;;;;5029796;28;20634;-68
2022/04/20 08:21:30;;;;;;;3.70;2.85;;;11.70;51.40;;;;;;5030601;28;20128;-68
2022/04/20 08:23:55;;;;;;;4.33;2.73;;;11.70;51.90;;;;;;5029820;28;20135;-68
2022/04/20 08:26:21;;;;;;;4.83;2.80;;;11.80;52.60;;;;;;5029129;28;20048;-68
2022/04/20 08:28:47;;;;;;;4.47;3.03;;;11.90;51.40;;;;;;5045135;28;20044;-68
2022/04/20 08:31:15;;;;;;;4.87;2.90;;;12.00;50.70;;;;;;5028157;28;20600;-68
2022/04/20 08:33:42;;;;;;;5.35;2.97;;;12.10;51.70;;;;;;5010233;28;20064;-68
2022/04/20 08:36:08;;;;;;;5.35;2.90;;;12.20;51.50;;;;;;5042661;28;20047;-68
2022/04/20 08:38:34;;;;;;;3.83;2.70;;;12.40;50.20;;;;;;5028880;28;20356;-68
2022/04/20 08:41:00;;;;;;;3.67;2.60;;;12.50;50.70;;;;;;5015983;28;20059;-69
2022/04/20 08:43:28;;;;;;;4.18;2.70;;;12.60;49.70;;;;;;5024665;28;20056;-69
2022/04/20 08:45:56;;;;;;;6.32;3.13;;;12.70;49.30;;;;;;5046887;28;20489;-69
2022/04/20 08:48:21;;;;;;;7.15;2.65;;;12.70;50.10;;;;;;5030456;28;20506;-69
2022/04/20 08:50:51;;;;;;;3.97;2.50;;;12.80;47.90;;;;;;5018133;28;20040;-69
2022/04/20 08:53:18;;;;;;;2.90;1.73;;;12.90;47.90;;;;;;5028819;28;20064;-69
2022/04/20 08:55:45;;;;;;;3.17;1.88;;;12.90;47.40;;;;;;5029574;28;20098;-69
2022/04/20 08:58:15;;;;;;;4.50;1.80;;;13.00;46.70;;;;;;5028937;28;20037;-69
2022/04/20 09:00:41;;;;;;;4.40;2.00;;;13.20;46.50;;;;;;5031549;28;20044;-69
2022/04/20 09:03:07;;;;;;;4.00;2.10;;;13.30;46.70;;;;;;5027425;28;20091;-69
2022/04/20 09:05:34;;;;;;;3.40;1.60;;;13.30;47.60;;;;;;5040848;28;20052;-69
2022/04/20 09:08:11;;;;;;;3.30;1.42;;;13.40;45.60;;;;;;5023228;28;20079;-69
2022/04/20 09:10:38;;;;;;;5.05;1.80;;;13.50;42.90;;;;;;5032281;28;20072;-69
2022/04/20 09:13:07;;;;;;;3.17;1.63;;;13.50;43.90;;;;;;5062919;28;20044;-69
2022/04/20 09:15:35;;;;;;;2.88;1.55;;;13.50;44.10;;;;;;5045642;28;20041;-69
2022/04/20 09:18:02;;;;;;;2.88;1.30;;;13.50;45.10;;;;;;5045303;28;20087;-69
2022/04/20 09:20:28;;;;;;;3.73;1.40;;;13.70;45.10;;;;;;5046875;28;20462;-69
2022/04/20 09:23:08;;;;;;;5.83;1.43;;;13.80;44.40;;;;;;5013183;28;20602;-69
2022/04/20 09:25:36;;;;;;;5.78;1.33;;;14.00;42.30;;;;;;5046888;28;20037;-69
2022/04/20 09:28:07;;;;;;;3.67;1.40;;;14.00;42.60;;;;;;5044471;28;20044;-69
2022/04/20 09:30:38;;;;;;;3.30;1.00;;;14.00;42.40;;;;;;5012775;28;20616;-69
2022/04/20 09:33:09;;;;;;;2.28;0.90;;;14.10;40.70;;;;;;5043805;28;20278;-69
2022/04/20 09:35:46;;;;;;;2.55;1.08;;;14.10;40.90;;;;;;5028116;28;20060;-69
2022/04/20 09:38:13;;;;;;;3.28;1.30;;;14.20;40.30;;;;;;5033460;28;20057;-69
2022/04/20 09:40:40;;;;;;;2.23;1.00;;;14.20;40.80;;;;;;5011806;28;20125;-69
2022/04/20 09:43:15;;;;;;;2.83;1.13;;;14.40;40.60;;;;;;5041466;28;20283;-69
2022/04/20 09:45:41;;;;;;;2.45;0.88;;;14.50;39.90;;;;;;5023231;28;20287;-69
2022/04/20 09:51:34;;;;;;;2.53;0.87;;;14.50;39.20;;;;;;5045062;28;20321;-69
2022/04/20 09:54:00;;;;;;;4.63;1.00;;;14.60;36.80;;;;;;5047320;28;20292;-69
2022/04/20 09:56:27;;;;;;;2.83;1.10;;;14.60;37.50;;;;;;5015013;28;20275;-69
2022/04/20 09:59:01;;;;;;;2.83;1.17;;;14.60;37.30;;;;;;5025614;28;20051;-69
2022/04/20 10:01:34;;;;;;;1.63;1.20;;;14.60;38.40;;;;;;5028589;28;20379;-69
2022/04/20 10:04:02;;;;;;;1.73;1.00;;;14.70;38.80;;;;;;5044530;28;20285;-69
2022/04/20 10:06:28;;;;;;;1.70;1.07;;;14.80;38.20;;;;;;5055998;28;20316;-70
2022/04/20 10:08:55;;;;;;;1.90;0.87;;;14.90;38.40;;;;;;5048041;28;20866;-71
2022/04/20 10:11:22;;;;;;;3.03;1.00;;;14.90;37.30;;;;;;5029955;28;20771;-70
2022/04/20 10:16:05;;;;;;;3.57;1.00;;;15.00;37.50;;;;;;5043239;28;20271;-69
2022/04/20 10:16:39;;;;;;;2.60;0.70;;;15.00;36.80;;;;;;5043078;28;20632;-69
2022/04/20 10:19:08;;;;;;;2.83;0.90;;;15.10;36.90;;;;;;5045833;28;20678;-69
2022/04/20 10:21:43;;;;;;;2.93;0.80;;;15.10;36.70;;;;;;5028426;28;20286;-69
2022/04/20 10:24:13;;;;;;;1.93;0.90;;;15.20;36.90;;;;;;5028502;28;20405;-69
2022/04/20 10:26:39;;;;;;;3.17;1.00;;;15.20;37.50;;;;;;5045425;28;20340;-69
2022/04/20 10:29:17;;;;;;;2.17;0.87;;;15.40;37.50;;;;;;5046242;28;20723;-69
2022/04/20 10:31:58;;;;;;;2.87;0.93;;;15.40;36.30;;;;;;5043337;28;20428;-69
2022/04/20 10:34:25;;;;;;;1.90;0.80;;;15.50;36.40;;;;;;5045639;28;20735;-68
2022/04/20 10:37:02;;;;;;;1.73;1.13;;;15.50;35.70;;;;;;5031349;28;20283;-68
2022/04/20 10:39:33;;;;;;;4.13;1.20;;;15.60;36.10;;;;;;5047912;28;20271;-69
2022/04/20 10:42:11;;;;;;;1.77;0.83;;;15.70;35.60;;;;;;5044403;28;20275;-69
2022/04/20 10:44:55;;;;;;;1.67;0.70;;;15.70;35.70;;;;;;5048232;28;20289;-69
2022/04/20 10:47:28;;;;;;;2.93;0.70;;;15.70;35.70;;;;;;5043531;28;20878;-69
2022/04/20 10:50:09;;;;;;;2.37;0.70;;;15.80;34.70;;;;;;5054600;28;20329;-69
2022/04/20 10:52:41;;;;;;;1.73;1.03;;;15.80;34.80;;;;;;5049157;28;20332;-68
2022/04/20 10:55:09;;;;;;;1.40;0.90;;;15.80;36.00;;;;;;5049742;28;21052;-69
2022/04/20 10:57:40;;;;;;;1.87;0.70;;;15.80;36.20;;;;;;5031725;28;20315;-69
2022/04/20 11:00:18;;;;;;;1.77;1.07;;;16.00;35.70;;;;;;5048564;28;20686;-69
2022/04/20 11:03:03;;;;;;;2.07;1.03;;;16.00;36.10;;;;;;5031994;28;20849;-69
2022/04/20 11:05:29;;;;;;;2.43;0.90;;;16.00;35.90;;;;;;5047720;28;20290;-69
2022/04/20 11:08:05;;;;;;;2.47;1.00;;;16.10;36.90;;;;;;5034520;28;20356;-69
2022/04/20 11:10:31;;;;;;;;;;;16.20;35.90;;;;;;5034972;28;20079;-69
2022/04/20 11:19:03;;;;;;;2.33;1.17;;;16.50;35.60;;;;;;5041698;28;20283;-69
2022/04/20 11:21:29;;;;;;;1.43;0.97;;;16.50;34.90;;;;;;5033076;28;20044;-72
2022/04/20 11:24:03;;;;;;;2.87;1.23;;;16.50;35.60;;;;;;5050025;28;20772;-69
2022/04/20 11:26:34;;;;;;;2.67;1.07;;;16.60;35.00;;;;;;5049196;28;20366;-69
2022/04/20 11:29:22;;;;;;;2.23;1.00;;;16.70;35.90;;;;;;5034702;28;20822;-69
2022/04/20 11:31:51;;;;;;;3.20;1.10;;;16.80;36.30;;;;;;5035825;28;20628;-69
2022/04/20 11:34:20;;;;;;;1.70;1.23;;;16.80;35.70;;;;;;5051528;28;20344;-69
2022/04/20 11:36:53;;;;;;;2.67;1.43;;;16.90;35.00;;;;;;5051107;28;20315;-69
2022/04/20 11:39:24;;;;;;;3.07;1.10;;;16.80;36.30;;;;;;5045296;28;20294;-69
2022/04/20 11:41:56;;;;;;;1.50;1.07;;;16.90;35.40;;;;;;5028705;28;20275;-69
2022/04/20 11:44:21;;;;;;;4.17;1.40;;;16.90;34.80;;;;;;5039236;28;20774;-69
2022/04/20 11:46:58;;;;;;;2.50;1.00;;;16.90;34.80;;;;;;5029413;28;20298;-69
2022/04/20 11:49:41;;;;;;;1.77;0.90;;;16.90;35.00;;;;;;5024752;28;20075;-69
2022/04/20 11:52:19;;;;;;;2.77;1.20;;;17.00;34.60;;;;;;5047959;28;20317;-69
2022/04/20 11:54:47;;;;;;;2.43;1.37;;;17.00;35.40;;;;;;5034145;28;20798;-69
2022/04/20 11:57:15;;;;;;;2.27;1.00;;;17.10;35.70;;;;;;5047096;28;20279;-69
2022/04/20 11:59:48;;;;;;;2.77;1.20;;;17.20;35.50;;;;;;5050274;28;20271;-69
2022/04/20 12:02:15;;;;;;;1.47;0.87;;;17.20;36.10;;;;;;5065910;28;20871;-69
2022/04/20 12:04:43;;;;;;;3.10;1.00;;;17.20;35.90;;;;;;5048953;28;20412;-69
2022/04/20 12:07:09;;;;;;;3.80;1.40;;;17.30;36.20;;;;;;5033082;28;20298;-69
2022/04/20 12:09:37;;;;;;;2.90;1.20;;;17.30;37.10;;;;;;5033818;28;20282;-69
2022/04/20 12:12:07;;;;;;;2.73;1.10;;;17.50;35.30;;;;;;5031736;28;20283;-69
2022/04/20 12:14:34;;;;;;;2.13;1.10;;;17.50;35.70;;;;;;5031386;28;20306;-69
2022/04/20 12:17:11;;;;;;;2.10;1.20;;;17.60;35.70;;;;;;5047703;28;20298;-69
2022/04/20 12:19:40;;;;;;;2.27;1.27;;;17.70;34.20;;;;;;5048573;28;20795;-69
2022/04/20 12:22:17;;;;;;;4.17;1.07;;;17.50;35.30;;;;;;5049599;28;20366;-69
2022/04/20 12:24:43;;;;;;;2.90;1.13;;;17.50;35.90;;;;;;5045967;28;20663;-69
2022/04/20 12:27:20;;;;;;;3.13;0.80;;;17.60;37.20;;;;;;5047833;28;20367;-69
2022/04/20 12:30:00;;;;;;;1.40;0.90;;;17.80;36.10;;;;;;5028498;28;20318;-69
2022/04/20 12:32:33;;;;;;;1.83;0.70;;;17.90;35.80;;;;;;5036014;28;20298;-69
2022/04/20 12:35:02;;;;;;;2.07;0.80;;;18.00;33.80;;;;;;5005781;28;20364;-69
2022/04/20 12:37:29;;;;;;;1.20;0.90;;;18.00;35.30;;;;;;5030356;28;20279;-69
2022/04/20 12:39:56;;;;;;;2.67;0.80;;;18.00;35.30;;;;;;5047441;28;20267;-69
2022/04/20 12:42:23;;;;;;;2.60;0.87;;;18.10;34.80;;;;;;5014196;28;20648;-69
2022/04/20 12:45:02;;;;;;;1.63;0.87;;;18.10;33.60;;;;;;5046085;28;20305;-69
2022/04/20 12:47:28;;;;;;;2.77;0.80;;;18.10;34.10;;;;;;5034050;28;20334;-69
2022/04/20 12:49:59;;;;;;;1.43;0.70;;;18.10;33.90;;;;;;5026714;28;20319;-69
2022/04/20 12:52:27;;;;;;;2.57;1.20;;;18.10;33.30;;;;;;5043460;28;20044;-69
2022/04/20 12:55:07;;;;;;;1.80;0.70;;;18.00;33.70;;;;;;5049537;28;20381;-69
2022/04/20 13:03:12;;;;;;;1.40;0.80;;;18.00;34.20;;;;;;5017837;28;20297;-69
2022/04/20 13:05:40;;;;;;;1.80;0.60;;;18.00;35.20;;;;;;5047605;28;20278;-69
2022/04/20 13:08:08;;;;;;;1.73;0.67;;;18.10;35.10;;;;;;5029093;28;20307;-69
2022/04/20 13:10:42;;;;;;;1.57;0.73;;;18.10;35.60;;;;;;5031859;28;20279;-69
2022/04/20 13:13:08;;;;;;;2.72;0.65;;;18.20;36.10;;;;;;5022413;28;20283;-69
2022/04/20 13:15:34;;;;;;;2.77;0.43;;;18.30;34.80;;;;;;5033505;28;20040;-69
2022/04/20 13:18:01;;;;;;;1.30;0.50;;;18.30;34.90;;;;;;5048687;28;20347;-69
2022/04/20 13:20:28;;;;;;;1.00;0.60;;;18.30;35.40;;;;;;5049015;28;20063;-69
2022/04/20 13:22:58;;;;;;;1.70;0.50;;;18.40;35.00;;;;;;5044657;28;20341;-69
2022/04/20 13:28:08;;;;;;;1.33;0.73;;;18.40;35.60;;;;;;5047551;28;20318;-69
2022/04/20 13:30:36;;;;;;;1.20;0.60;;;18.50;35.90;;;;;;5046225;28;20279;-69
2022/04/20 13:33:03;;;;;;;4.53;0.50;;;18.70;36.40;;;;;;5045202;28;20298;-70
2022/04/20 13:35:29;;;;;;;4.10;0.50;;;18.70;35.00;;;;;;5048491;28;20799;-69